This is the latest recevied weather packets stored in our database for station/object JA1CAY-13. If no packets are shown the sender has not sent any weather packets the latest 10 day(s).
| Time | Temp. | Humidity | Pressure | Rain* | Wind** | Luminosity | Snow |
|---|---|---|---|---|---|---|---|
| 1777718005 | 20.56° C | 53% | 1009 hPa | 0 mm | - | 0 W/m² | - |
| 1777716925 | 21.11° C | 50% | 1008.6 hPa | 0 mm | - | 0 W/m² | - |
| 1777712605 | 24.44° C | 40% | 1007.6 hPa | 0 mm | - | 19 W/m² | - |
| 1777711525 | 25° C | 38% | 1007.3 hPa | 0 mm | - | 47 W/m² | - |
| 1777705585 | 27.78° C | 25% | 1005.6 hPa | 0 mm | - | 316 W/m² | - |
| 1777704505 | 28.33° C | 24% | 1005.2 hPa | 0 mm | - | 290 W/m² | - |
| 1777699645 | 29.44° C | 25% | 1004.6 hPa | 0 mm | - | 701 W/m² | - |
| 1777696405 | 28.89° C | 25% | 1004.5 hPa | 0 mm | - | 842 W/m² | - |
| 1777691004 | 27.22° C | 29% | 1004.4 hPa | 0 mm | - | 949 W/m² | - |
| 1777687765 | 25.56° C | 28% | 1004.4 hPa | 0 mm | - | 946 W/m² | - |
| 1777686144 | 25° C | 32% | 1004.3 hPa | 0 mm | - | 921 W/m² | - |
| 1777682904 | 23.89° C | 37% | 1004 hPa | 0 mm | - | 846 W/m² | - |
| 1777679664 | 22.22° C | 40% | 1004.1 hPa | 0 mm | - | 710 W/m² | - |
| 1777679125 | 21.67° C | 39% | 1004.2 hPa | 0 mm | - | 680 W/m² | - |
| 1777678584 | 21.67° C | 41% | 1004 hPa | 0 mm | - | 650 W/m² | - |
| 1777675345 | 20° C | 43% | 1002.6 hPa | 0 mm | - | 494 W/m² | - |
| 1777668324 | 15° C | 61% | 1000 hPa | 0 mm | - | 86 W/m² | - |
| 1777667785 | 14.44° C | 64% | 999.9 hPa | 0 mm | - | 58 W/m² | - |
| 1777667245 | 14.44° C | 65% | 999.8 hPa | 0 mm | - | 16 W/m² | - |
| 1777655904 | 9.44° C | 92% | 996.3 hPa | 0 mm | - | 0 W/m² | - |
| 1777647804 | 10.56° C | 92% | 995.4 hPa | 0 mm | - | 0 W/m² | - |
| 1777644565 | 10.56° C | 91% | 995.6 hPa | 0 mm | - | 0 W/m² | - |
| 1777637545 | 11.67° C | 90% | 994.4 hPa | 0 mm | - | 0 W/m² | - |
| 1777630524 | 13.89° C | 83% | 993.4 hPa | 0.76 mm | - | 0 W/m² | - |
| 1777628364 | 16.11° C | 79% | 992.5 hPa | 0.51 mm | - | 0 W/m² | - |
* Rain latest hour (hover to see other rain measurements)
** Current wind speed in m/s (hover to see current wind gust speed)